Portada
METAR-TAF:

METAR-TAF

Aeroports :

Waddington, Anglaterra

latitud: 53-10N, longitud: 000-31W, altitud: 68 m

Observació

L'informe es va fer fa 30 minuts, a les 10:21 UTC
Vent 21 kt del Sud-Oest amb ràfegues de 31 kt
Temperatura 7°C
Humitat 81%
Pressió 1016 hPa
Visibilitat 10 km o més
Cel ennuvolat a una alçada de 1800 ft
Cel ennuvolat a una alçada de 8000 ft

METAR: EGXW 211021Z 22021G31KT 9999 BKN018 BKN080 07/04 Q1016 NOSIG RMK WHT WHT

Hora: 10:51 (10:51 UTC)

Pronòstic

L'informe es va fer fa 3 hores i 10 minuts, a les 07:41 UTC
Pronòstic vàlid del 21 a les 09 UTC al 22 a les 03 UTC
Vent 20 kt del Sud-Oest amb ràfegues de 33 kt
Visibilitat 10 km o més
Cel ennuvolat a una alçada de 3000 ft
Temporalment
l' 21 a les 09 UTC al 22 a les 03 UTC
Cel ennuvolat a una alçada de 1800 ft
Probabilitat 30% :
Temporalment
l' 21 a les 21 UTC al 22 a les 03 UTC
Núvols disperses a una alçada de 1200 ft

TAF: EGXW 210741Z 2109/2203 22020G33KT 9999 BKN030 TEMPO 2109/2203 BKN018 PROB30 TEMPO 2121/2203 SCT012

Observacions i pronòstics meteorològics de més de 4000 aeroports (METAR i TAF).

Les estacions disponibles són els punts grocs i vermells al mapa.

Posi el ratolí al punt desitjat per veure el nom de l'estació.

Feu clic per veure les observacions i els pronòstics meteorològics.

Per canviar el mapa: feu clic els botons verds amb una creu de color negre per apropar; al botó verd amb un guió per allunyar la imatge; o en les fletxes verdes per a mapes adjacents.


METAR-TAF: